Margaret F. Cooper — WDB9825 — position and weather

sailwx.info

Track history (hours):
 
Tides and Currents Weather Stations Pressure Air Temp Water Temp Dewpoint Dewpoint Depression Visibility Wind Speed Wind Dir Waves Ship Positions

Margaret F. Cooper

Owner: CRESCENT TOWING & SALVAGE CO INC, New Orleans, LA. More information available from US FCC via Universal Licensing System and Coast Guard Vessel Documentation Center.

Last reported at 2014-Oct-01 12:33 UTC. Time now 2014-Oct-01 22:30 UTC.
Position N 30°03' W 090°28'.

Length 30 m; draft 4.5 m.

Type: Tug. MMSI: 366983480.

Date/timePositionNaut miles runAvg speedWind from/ knotsBaromVisibWave heightAir tempDewpointWater temp
2014-Oct-01 12:33N 30°03' W 090°28'0 0.0
2014-Oct-01 11:33N 30°03' W 090°28'0 0.0
2014-Oct-01 10:33N 30°03' W 090°28'0 0.0
2014-Oct-01 09:34N 30°03' W 090°28'0 0.0
2014-Oct-01 08:33N 30°03' W 090°28'0 0.0
2014-Oct-01 07:33N 30°03' W 090°28'0 0.0
2014-Oct-01 06:33N 30°03' W 090°28'0 0.0
2014-Oct-01 05:33N 30°03' W 090°28'0 0.0
2014-Oct-01 04:33N 30°03' W 090°28'0 0.0
2014-Oct-01 03:33N 30°03' W 090°28'0 0.1
2014-Oct-01 02:33N 30°03' W 090°28'0 0.5
2014-Oct-01 01:33N 30°03' W 090°29'0 0.0
2014-Oct-01 00:29N 30°03' W 090°29'0 0.0
2014-Sep-30 23:32N 30°03' W 090°29'0 0.0
2014-Sep-30 22:34N 30°03' W 090°29'5 1.3
2014-Sep-30 18:33N 30°03' W 090°35'13 1.0
2014-Sep-30 05:33N 30°00' W 090°50'1 0.9
2014-Sep-30 04:19N 30°01' W 090°50'  
2014-Sep-27 13:32N 30°01' W 090°50'0 0.0
2014-Sep-27 12:21N 30°01' W 090°50'1 0.8
2014-Sep-27 10:33N 30°03' W 090°50'1 0.8
2014-Sep-27 09:17N 30°02' W 090°50'0 0.5
2014-Sep-27 08:31N 30°01' W 090°50'0 0.0
2014-Sep-27 07:18N 30°01' W 090°50'3 3.7
2014-Sep-27 06:31N 30°01' W 090°47'8 7.8
2014-Sep-27 05:33N 30°03' W 090°39'4 4.5
2014-Sep-27 04:33N 30°03' W 090°34'2 1.8
2014-Sep-27 03:33N 30°03' W 090°36'3 2.7
2014-Sep-27 02:33N 30°03' W 090°33'4 1.2
2014-Sep-26 23:29N 30°03' W 090°29'0 0.0
2014-Sep-26 22:33N 30°03' W 090°29'0 0.0
2014-Sep-26 12:33N 30°03' W 090°29'3 3.0
2014-Sep-26 11:33N 30°03' W 090°32'2 2.2
2014-Sep-26 10:33N 30°03' W 090°35'0 0.0
2014-Sep-26 09:33N 30°03' W 090°35'1 0.9
2014-Sep-26 08:33N 30°03' W 090°34'0 0.0
2014-Sep-26 07:33N 30°03' W 090°34'0 0.0
2014-Sep-26 06:33N 30°03' W 090°34'3 3.3
2014-Sep-26 05:33N 30°03' W 090°30'0 0.2
2014-Sep-26 04:33N 30°03' W 090°30'3 3.4
2014-Sep-26 03:33N 30°03' W 090°34'0 0.0
2014-Sep-26 02:33N 30°03' W 090°34'0 0.0
2014-Sep-26 01:33N 30°03' W 090°34'0 0.0
2014-Sep-26 00:33N 30°03' W 090°34'0 0.0
2014-Sep-25 23:33N 30°03' W 090°34'0 0.0
2014-Sep-25 22:33N 30°03' W 090°34'2 1.7
2014-Sep-25 21:27N 30°03' W 090°36'1 1.1
2014-Sep-25 20:33N 30°03' W 090°35'1 0.9
2014-Sep-25 19:33N 30°03' W 090°34'0 0.0
2014-Sep-25 18:33N 30°03' W 090°34'0 0.0
2014-Sep-25 17:33N 30°03' W 090°34'0 0.0
2014-Sep-25 16:33N 30°03' W 090°34'0 0.0
2014-Sep-25 15:33N 30°03' W 090°34'1 0.8
2014-Sep-25 14:33N 30°03' W 090°33'0 0.0
2014-Sep-25 13:33N 30°03' W 090°33'0 0.0
2014-Sep-25 12:33N 30°03' W 090°33'1 0.8
2014-Sep-25 11:33N 30°03' W 090°34'0 0.0
2014-Sep-25 10:33N 30°03' W 090°34'0 0.0
2014-Sep-25 09:33N 30°03' W 090°34'0 0.0
2014-Sep-25 08:33N 30°03' W 090°34'0 0.0
2014-Sep-25 07:33N 30°03' W 090°34'0 0.0
2014-Sep-25 06:33N 30°03' W 090°34'0 0.0
2014-Sep-25 05:33N 30°03' W 090°34'0 0.0
2014-Sep-25 04:33N 30°03' W 090°34'0 0.0
2014-Sep-25 03:33N 30°03' W 090°34'0 0.0
2014-Sep-25 02:33N 30°03' W 090°34'0 0.0
2014-Sep-25 01:33N 30°03' W 090°34'0 0.0
2014-Sep-25 00:33N 30°03' W 090°34'0 0.0
2014-Sep-24 23:33N 30°03' W 090°34'0 0.0
2014-Sep-24 22:33N 30°03' W 090°34'1 0.9
2014-Sep-24 21:33N 30°03' W 090°35'1 0.9
2014-Sep-24 20:33N 30°03' W 090°34'1 0.9
2014-Sep-24 19:33N 30°03' W 090°35'  
2014-Sep-22 14:18N 30°03' W 090°36'2 2.4
2014-Sep-22 13:33N 30°03' W 090°34'1 0.9
2014-Sep-22 12:33N 30°03' W 090°35'0 0.1
2014-Sep-22 11:33N 30°03' W 090°35'1 0.8
2014-Sep-22 10:33N 30°03' W 090°34'0 0.0
2014-Sep-22 09:33N 30°03' W 090°34'0 0.0
2014-Sep-22 08:33N 30°03' W 090°34'0 0.0
2014-Sep-22 07:33N 30°03' W 090°34'0 0.0
2014-Sep-22 06:33N 30°03' W 090°34'0 0.0
2014-Sep-22 05:33N 30°03' W 090°34'0 0.0
2014-Sep-22 04:33N 30°03' W 090°34'3 2.9
2014-Sep-22 03:33N 30°03' W 090°30'0 0.3
2014-Sep-22 02:33N 30°03' W 090°30'0 0.3
2014-Sep-22 01:33N 30°03' W 090°30'0 0.0
2014-Sep-22 00:33N 30°03' W 090°30'0 0.0
2014-Sep-21 23:32N 30°03' W 090°30'0 0.0
2014-Sep-21 22:33N 30°03' W 090°30'4 3.7
2014-Sep-21 21:33N 30°03' W 090°35'1 1.2
2014-Sep-21 20:33N 30°03' W 090°36'2 1.9
2014-Sep-21 19:33N 30°03' W 090°34'0 0.0
2014-Sep-21 18:33N 30°03' W 090°34'0 0.0
2014-Sep-21 17:33N 30°03' W 090°34'0 0.0
2014-Sep-21 16:33N 30°03' W 090°34'0 0.0
2014-Sep-21 15:33N 30°03' W 090°34'0 0.0
2014-Sep-21 14:33N 30°03' W 090°34'0 0.0
2014-Sep-21 13:33N 30°03' W 090°34'  
Track history (hours):
 
Tides and Currents Weather Stations Pressure Air Temp Water Temp Dewpoint Dewpoint Depression Visibility Wind Speed Wind Dir Waves Ship Positions

Margaret F. Cooper

Owner: CRESCENT TOWING & SALVAGE CO INC, New Orleans, LA. More information available from US FCC via Universal Licensing System and Coast Guard Vessel Documentation Center.

Last reported at 2014-Oct-01 12:33 UTC. Time now 2014-Oct-01 22:30 UTC.
Position N 30°03' W 090°28'.

Length 30 m; draft 4.5 m.

Type: Tug. MMSI: 366983480.

Date/timePositionNaut miles runAvg speedWind from/ knotsBaromVisibWave heightAir tempDewpointWater temp
2014-Oct-01 12:33N 30°03' W 090°28'0 0.0
2014-Oct-01 11:33N 30°03' W 090°28'0 0.0
2014-Oct-01 10:33N 30°03' W 090°28'0 0.0
2014-Oct-01 09:34N 30°03' W 090°28'0 0.0
2014-Oct-01 08:33N 30°03' W 090°28'0 0.0
2014-Oct-01 07:33N 30°03' W 090°28'0 0.0
2014-Oct-01 06:33N 30°03' W 090°28'0 0.0
2014-Oct-01 05:33N 30°03' W 090°28'0 0.0
2014-Oct-01 04:33N 30°03' W 090°28'0 0.0
2014-Oct-01 03:33N 30°03' W 090°28'0 0.1
2014-Oct-01 02:33N 30°03' W 090°28'0 0.5
2014-Oct-01 01:33N 30°03' W 090°29'0 0.0
2014-Oct-01 00:29N 30°03' W 090°29'0 0.0
2014-Sep-30 23:32N 30°03' W 090°29'0 0.0
2014-Sep-30 22:34N 30°03' W 090°29'5 1.3
2014-Sep-30 18:33N 30°03' W 090°35'13 1.0
2014-Sep-30 05:33N 30°00' W 090°50'1 0.9
2014-Sep-30 04:19N 30°01' W 090°50'  
2014-Sep-27 13:32N 30°01' W 090°50'0 0.0
2014-Sep-27 12:21N 30°01' W 090°50'1 0.8
2014-Sep-27 10:33N 30°03' W 090°50'1 0.8
2014-Sep-27 09:17N 30°02' W 090°50'0 0.5
2014-Sep-27 08:31N 30°01' W 090°50'0 0.0
2014-Sep-27 07:18N 30°01' W 090°50'3 3.7
2014-Sep-27 06:31N 30°01' W 090°47'8 7.8
2014-Sep-27 05:33N 30°03' W 090°39'4 4.5
2014-Sep-27 04:33N 30°03' W 090°34'2 1.8
2014-Sep-27 03:33N 30°03' W 090°36'3 2.7
2014-Sep-27 02:33N 30°03' W 090°33'4 1.2
2014-Sep-26 23:29N 30°03' W 090°29'0 0.0
2014-Sep-26 22:33N 30°03' W 090°29'0 0.0
2014-Sep-26 12:33N 30°03' W 090°29'3 3.0
2014-Sep-26 11:33N 30°03' W 090°32'2 2.2
2014-Sep-26 10:33N 30°03' W 090°35'0 0.0
2014-Sep-26 09:33N 30°03' W 090°35'1 0.9
2014-Sep-26 08:33N 30°03' W 090°34'0 0.0
2014-Sep-26 07:33N 30°03' W 090°34'0 0.0
2014-Sep-26 06:33N 30°03' W 090°34'3 3.3
2014-Sep-26 05:33N 30°03' W 090°30'0 0.2
2014-Sep-26 04:33N 30°03' W 090°30'3 3.4
2014-Sep-26 03:33N 30°03' W 090°34'0 0.0
2014-Sep-26 02:33N 30°03' W 090°34'0 0.0
2014-Sep-26 01:33N 30°03' W 090°34'0 0.0
2014-Sep-26 00:33N 30°03' W 090°34'0 0.0
2014-Sep-25 23:33N 30°03' W 090°34'0 0.0
2014-Sep-25 22:33N 30°03' W 090°34'2 1.7
2014-Sep-25 21:27N 30°03' W 090°36'1 1.1
2014-Sep-25 20:33N 30°03' W 090°35'1 0.9
2014-Sep-25 19:33N 30°03' W 090°34'0 0.0
2014-Sep-25 18:33N 30°03' W 090°34'0 0.0
2014-Sep-25 17:33N 30°03' W 090°34'0 0.0
2014-Sep-25 16:33N 30°03' W 090°34'0 0.0
2014-Sep-25 15:33N 30°03' W 090°34'1 0.8
2014-Sep-25 14:33N 30°03' W 090°33'0 0.0
2014-Sep-25 13:33N 30°03' W 090°33'0 0.0
2014-Sep-25 12:33N 30°03' W 090°33'1 0.8
2014-Sep-25 11:33N 30°03' W 090°34'0 0.0
2014-Sep-25 10:33N 30°03' W 090°34'0 0.0
2014-Sep-25 09:33N 30°03' W 090°34'0 0.0
2014-Sep-25 08:33N 30°03' W 090°34'0 0.0
2014-Sep-25 07:33N 30°03' W 090°34'0 0.0
2014-Sep-25 06:33N 30°03' W 090°34'0 0.0
2014-Sep-25 05:33N 30°03' W 090°34'0 0.0
2014-Sep-25 04:33N 30°03' W 090°34'0 0.0
2014-Sep-25 03:33N 30°03' W 090°34'0 0.0
2014-Sep-25 02:33N 30°03' W 090°34'0 0.0
2014-Sep-25 01:33N 30°03' W 090°34'0 0.0
2014-Sep-25 00:33N 30°03' W 090°34'0 0.0
2014-Sep-24 23:33N 30°03' W 090°34'0 0.0
2014-Sep-24 22:33N 30°03' W 090°34'1 0.9
2014-Sep-24 21:33N 30°03' W 090°35'1 0.9
2014-Sep-24 20:33N 30°03' W 090°34'1 0.9
2014-Sep-24 19:33N 30°03' W 090°35'  
2014-Sep-22 14:18N 30°03' W 090°36'2 2.4
2014-Sep-22 13:33N 30°03' W 090°34'1 0.9
2014-Sep-22 12:33N 30°03' W 090°35'0 0.1
2014-Sep-22 11:33N 30°03' W 090°35'1 0.8
2014-Sep-22 10:33N 30°03' W 090°34'0 0.0
2014-Sep-22 09:33N 30°03' W 090°34'0 0.0
2014-Sep-22 08:33N 30°03' W 090°34'0 0.0
2014-Sep-22 07:33N 30°03' W 090°34'0 0.0
2014-Sep-22 06:33N 30°03' W 090°34'0 0.0
2014-Sep-22 05:33N 30°03' W 090°34'0 0.0
2014-Sep-22 04:33N 30°03' W 090°34'3 2.9
2014-Sep-22 03:33N 30°03' W 090°30'0 0.3
2014-Sep-22 02:33N 30°03' W 090°30'0 0.3
2014-Sep-22 01:33N 30°03' W 090°30'0 0.0
2014-Sep-22 00:33N 30°03' W 090°30'0 0.0
2014-Sep-21 23:32N 30°03' W 090°30'0 0.0
2014-Sep-21 22:33N 30°03' W 090°30'4 3.7
2014-Sep-21 21:33N 30°03' W 090°35'1 1.2
2014-Sep-21 20:33N 30°03' W 090°36'2 1.9
2014-Sep-21 19:33N 30°03' W 090°34'0 0.0
2014-Sep-21 18:33N 30°03' W 090°34'0 0.0
2014-Sep-21 17:33N 30°03' W 090°34'0 0.0
2014-Sep-21 16:33N 30°03' W 090°34'0 0.0
2014-Sep-21 15:33N 30°03' W 090°34'0 0.0
2014-Sep-21 14:33N 30°03' W 090°34'0 0.0
2014-Sep-21 13:33N 30°03' W 090°34'  

Dump ship's entire track history